createdAt,value
2023-04-09T00:02:23.082Z,100.00
2023-04-09T00:04:51.809Z,100.00
2023-04-09T00:07:21.180Z,100.00
2023-04-09T00:09:50.243Z,100.00
2023-04-09T00:12:19.290Z,100.00
2023-04-09T00:14:49.660Z,100.00
2023-04-09T00:17:18.358Z,100.00
2023-04-09T00:19:46.930Z,100.00
2023-04-09T00:22:16.416Z,100.00
2023-04-09T00:24:45.417Z,100.00
2023-04-09T00:27:14.306Z,100.00
2023-04-09T00:29:43.406Z,100.00
2023-04-09T00:32:14.383Z,100.00
2023-04-09T00:34:43.131Z,100.00
2023-04-09T00:37:12.056Z,100.00
2023-04-09T00:39:41.372Z,100.00
2023-04-09T00:42:10.346Z,100.00
2023-04-09T00:44:39.272Z,100.00
2023-04-09T00:47:08.219Z,100.00
2023-04-09T00:49:38.374Z,100.00
2023-04-09T00:52:07.019Z,100.00
2023-04-09T00:54:36.069Z,100.00
2023-04-09T00:57:05.228Z,100.00
2023-04-09T00:59:34.186Z,100.00
2023-04-09T01:02:03.102Z,100.00
2023-04-09T01:04:31.914Z,100.00
2023-04-09T01:07:08.573Z,100.00
2023-04-09T01:09:40.720Z,100.00
2023-04-09T01:12:14.557Z,100.00
2023-04-09T01:14:48.825Z,100.00
2023-04-09T01:17:26.225Z,100.00
2023-04-09T01:20:01.062Z,100.00
2023-04-09T01:22:35.960Z,100.00
2023-04-09T01:25:11.458Z,100.00
2023-04-09T01:27:52.852Z,100.00
2023-04-09T01:30:23.680Z,100.00
2023-04-09T01:32:53.822Z,100.00
2023-04-09T01:35:23.206Z,100.00
2023-04-09T01:37:52.596Z,100.00
2023-04-09T01:40:21.586Z,100.00
2023-04-09T01:42:51.275Z,100.00
2023-04-09T01:45:20.601Z,100.00
2023-04-09T01:47:51.130Z,100.00
2023-04-09T01:50:20.474Z,100.00
2023-04-09T01:52:49.111Z,100.00
2023-04-09T01:55:18.310Z,100.00
2023-04-09T01:57:47.417Z,100.00
2023-04-09T02:00:17.234Z,100.00
2023-04-09T02:02:55.577Z,100.00
2023-04-09T02:05:27.316Z,100.00
2023-04-09T02:07:58.296Z,100.00
2023-04-09T02:10:28.686Z,100.00
2023-04-09T02:12:57.307Z,100.00
2023-04-09T02:15:28.300Z,100.00
2023-04-09T02:17:58.901Z,100.00
2023-04-09T02:20:29.098Z,100.00
2023-04-09T02:22:58.747Z,100.00
2023-04-09T02:25:27.909Z,100.00
2023-04-09T02:27:56.928Z,100.00
2023-04-09T02:30:26.039Z,100.00
2023-04-09T02:32:55.408Z,100.00
2023-04-09T02:35:25.935Z,100.00
2023-04-09T02:37:54.713Z,100.00
2023-04-09T02:40:23.807Z,100.00
2023-04-09T02:42:53.217Z,100.00
2023-04-09T02:45:22.344Z,100.00
2023-04-09T02:47:51.375Z,100.00
2023-04-09T02:50:20.677Z,100.00
2023-04-09T02:52:53.995Z,100.00
2023-04-09T02:55:23.224Z,100.00
2023-04-09T02:57:53.402Z,100.00
2023-04-09T03:00:22.671Z,100.00
2023-04-09T03:02:52.911Z,100.00
2023-04-09T03:05:22.348Z,100.00
2023-04-09T03:07:50.919Z,100.00
2023-04-09T03:10:21.415Z,100.00
2023-04-09T03:12:51.267Z,100.00
2023-04-09T03:15:20.278Z,100.00
2023-04-09T03:17:49.317Z,100.00
2023-04-09T03:20:18.445Z,100.00
2023-04-09T03:22:47.008Z,100.00
2023-04-09T03:25:31.562Z,100.00
2023-04-09T03:28:04.412Z,100.00
2023-04-09T03:30:43.030Z,100.00
2023-04-09T03:33:12.240Z,100.00
2023-04-09T03:36:01.648Z,100.00
2023-04-09T03:38:49.547Z,100.00
2023-04-09T03:41:35.081Z,100.00
2023-04-09T03:44:07.794Z,100.00
2023-04-09T03:46:46.629Z,100.00
2023-04-09T03:49:19.270Z,100.00
2023-04-09T03:51:48.453Z,100.00
2023-04-09T03:54:18.006Z,100.00
2023-04-09T03:56:52.009Z,100.00
2023-04-09T03:59:25.513Z,100.00
2023-04-09T04:01:54.321Z,100.00
2023-04-09T04:04:24.020Z,100.00
2023-04-09T04:06:57.410Z,100.00
2023-04-09T04:09:42.851Z,100.00
2023-04-09T04:12:17.535Z,100.00
2023-04-09T04:15:06.172Z,100.00
2023-04-09T04:17:57.219Z,100.00
2023-04-09T04:20:43.242Z,100.00
2023-04-09T04:23:15.426Z,100.00
2023-04-09T04:25:54.383Z,100.00
2023-04-09T04:28:33.441Z,100.00
2023-04-09T04:31:02.600Z,100.00
2023-04-09T04:33:34.150Z,100.00
2023-04-09T04:36:07.689Z,100.00
2023-04-09T04:38:54.967Z,100.00
2023-04-09T04:41:32.830Z,100.00
2023-04-09T04:44:12.653Z,100.00
2023-04-09T04:46:42.702Z,100.00
2023-04-09T04:49:13.031Z,100.00
2023-04-09T04:51:49.276Z,100.00
2023-04-09T04:54:19.146Z,100.00
2023-04-09T04:56:54.298Z,100.00
2023-04-09T04:59:44.290Z,100.00
2023-04-09T05:02:15.801Z,100.00
2023-04-09T05:04:55.245Z,100.00
2023-04-09T05:07:31.689Z,100.00
2023-04-09T05:10:00.712Z,100.00
2023-04-09T05:12:36.446Z,100.00
2023-04-09T05:15:08.800Z,100.00
2023-04-09T05:17:39.584Z,100.00
2023-04-09T05:20:10.041Z,100.00
2023-04-09T05:22:48.584Z,100.00
2023-04-09T05:25:18.066Z,100.00
2023-04-09T05:27:47.428Z,100.00
2023-04-09T05:30:18.450Z,100.00
2023-04-09T05:32:48.440Z,100.00
2023-04-09T05:35:18.616Z,100.00
2023-04-09T05:37:47.355Z,100.00
2023-04-09T05:40:16.486Z,100.00
2023-04-09T05:42:45.945Z,100.00
2023-04-09T05:45:22.443Z,100.00
2023-04-09T05:47:54.558Z,100.00
2023-04-09T05:50:25.198Z,100.00
2023-04-09T05:52:55.948Z,100.00
2023-04-09T05:55:32.813Z,100.00
2023-04-09T05:58:03.458Z,100.00
2023-04-09T06:00:34.643Z,100.00
2023-04-09T06:03:05.039Z,100.00
2023-04-09T06:05:34.055Z,100.00
2023-04-09T06:08:03.608Z,100.00
2023-04-09T06:10:34.432Z,100.00
2023-04-09T06:13:03.998Z,100.00
2023-04-09T06:15:34.589Z,100.00
2023-04-09T06:18:03.771Z,100.00
2023-04-09T06:20:32.741Z,100.00
2023-04-09T06:23:01.674Z,100.00
2023-04-09T06:25:30.085Z,100.00
2023-04-09T06:27:58.995Z,100.00
2023-04-09T06:30:27.922Z,100.00
2023-04-09T06:32:58.421Z,100.00
2023-04-09T06:35:27.653Z,100.00
2023-04-09T06:37:56.448Z,100.00
2023-04-09T06:40:25.566Z,100.00
2023-04-09T06:42:54.598Z,100.00
2023-04-09T06:45:32.789Z,100.00
2023-04-09T06:48:03.449Z,100.00
2023-04-09T06:50:32.432Z,100.00
2023-04-09T06:53:01.359Z,100.00
2023-04-09T06:55:30.091Z,100.00
2023-04-09T06:57:59.007Z,100.00
2023-04-09T07:00:27.985Z,100.00
2023-04-09T07:02:57.468Z,100.00
2023-04-09T07:05:28.282Z,100.00
2023-04-09T07:07:56.912Z,100.00
2023-04-09T07:10:26.249Z,100.00
2023-04-09T07:12:55.342Z,100.00
2023-04-09T07:15:24.533Z,100.00
2023-04-09T07:17:53.613Z,100.00
2023-04-09T07:20:22.882Z,100.00
2023-04-09T07:22:53.050Z,100.00
2023-04-09T07:25:22.306Z,100.00
2023-04-09T07:27:51.427Z,100.00
2023-04-09T07:30:20.507Z,100.00
2023-04-09T07:32:49.441Z,100.00
2023-04-09T07:35:18.798Z,100.00
2023-04-09T07:37:47.393Z,100.00
2023-04-09T07:40:17.787Z,100.00
2023-04-09T07:42:47.107Z,100.00
2023-04-09T07:45:17.240Z,100.00
2023-04-09T07:47:46.329Z,100.00
2023-04-09T07:50:16.020Z,100.00
2023-04-09T07:52:44.702Z,100.00
2023-04-09T07:55:13.767Z,100.00
2023-04-09T07:57:45.368Z,100.00
2023-04-09T08:00:15.246Z,100.00
2023-04-09T08:02:45.861Z,100.00
2023-04-09T08:05:15.180Z,100.00
2023-04-09T08:07:44.106Z,100.00
2023-04-09T08:10:15.349Z,100.00
2023-04-09T08:12:46.132Z,100.00
2023-04-09T08:15:15.282Z,100.00
2023-04-09T08:17:44.442Z,100.00
2023-04-09T08:20:14.142Z,100.00
2023-04-09T08:22:42.854Z,100.00
2023-04-09T08:25:11.781Z,100.00
2023-04-09T08:27:40.996Z,100.00
2023-04-09T08:30:12.734Z,100.00
2023-04-09T08:32:41.873Z,100.00
2023-04-09T08:35:11.615Z,100.00
2023-04-09T08:37:40.116Z,100.00
2023-04-09T08:40:11.746Z,100.00
2023-04-09T08:42:46.030Z,100.00
2023-04-09T08:45:17.291Z,98.62
2023-04-09T08:47:47.023Z,98.29
2023-04-09T08:50:16.257Z,100.00
2023-04-09T08:52:47.915Z,96.29
2023-04-09T08:55:16.988Z,93.82
2023-04-09T08:57:46.051Z,91.63
2023-04-09T09:00:16.712Z,91.65
2023-04-09T09:03:03.806Z,95.34
2023-04-09T09:05:40.702Z,95.93
2023-04-09T09:08:10.567Z,94.78
2023-04-09T09:10:47.420Z,96.18
2023-04-09T09:13:22.766Z,95.91
2023-04-09T09:15:55.190Z,95.65
2023-04-09T09:18:39.489Z,95.94
2023-04-09T09:21:14.744Z,96.57
2023-04-09T09:23:44.090Z,97.09
2023-04-09T09:26:16.612Z,97.01
2023-04-09T09:28:45.610Z,97.62
2023-04-09T09:31:14.917Z,97.92
2023-04-09T09:33:43.983Z,98.21
2023-04-09T09:36:12.971Z,93.34
2023-04-09T09:38:54.859Z,94.40
2023-04-09T09:41:26.414Z,90.90
2023-04-09T09:43:54.994Z,93.89
2023-04-09T09:46:24.060Z,92.78
2023-04-09T09:48:53.299Z,91.30
2023-04-09T09:51:28.633Z,88.36
2023-04-09T09:53:58.547Z,81.69
2023-04-09T09:56:33.539Z,83.21
2023-04-09T09:59:07.514Z,81.27
2023-04-09T10:01:37.392Z,76.67
2023-04-09T10:04:08.755Z,74.54
2023-04-09T10:06:38.909Z,72.45
2023-04-09T10:09:08.088Z,59.04
2023-04-09T10:11:39.353Z,56.31
2023-04-09T10:14:08.532Z,48.06
2023-04-09T10:16:37.325Z,38.38
2023-04-09T10:19:08.234Z,37.94
2023-04-09T10:21:42.870Z,35.61
2023-04-09T10:24:12.285Z,42.41
2023-04-09T10:26:44.733Z,48.56
2023-04-09T10:29:15.351Z,54.15
2023-04-09T10:31:47.114Z,58.84
2023-04-09T10:34:19.221Z,62.39
2023-04-09T10:36:53.075Z,66.47
2023-04-09T10:39:21.985Z,69.53
2023-04-09T10:41:52.592Z,68.91
2023-04-09T10:44:22.502Z,67.84
2023-04-09T10:46:51.525Z,54.59
2023-04-09T10:49:22.299Z,54.67
2023-04-09T10:51:55.085Z,56.96
2023-04-09T10:54:47.269Z,62.04
2023-04-09T10:57:19.347Z,67.07
2023-04-09T10:59:49.873Z,72.27
2023-04-09T11:02:54.976Z,74.62
2023-04-09T11:05:28.353Z,78.80
2023-04-09T11:08:02.616Z,77.91
2023-04-09T11:10:32.127Z,78.33
2023-04-09T11:13:03.246Z,79.45
2023-04-09T11:15:33.536Z,81.10
2023-04-09T11:18:03.325Z,81.47
2023-04-09T11:20:32.657Z,75.30
2023-04-09T11:23:01.955Z,67.88
2023-04-09T11:25:32.320Z,58.10
2023-04-09T11:28:04.640Z,52.22
2023-04-09T11:30:34.522Z,43.98
2023-04-09T11:33:03.916Z,30.11
2023-04-09T11:35:35.910Z,30.85
2023-04-09T11:38:09.298Z,29.77
2023-04-09T11:40:43.582Z,25.39
2023-04-09T11:43:14.938Z,25.81
2023-04-09T11:45:44.290Z,24.86
2023-04-09T11:48:13.930Z,28.17
2023-04-09T11:50:42.956Z,28.46
2023-04-09T11:53:19.187Z,28.75
2023-04-09T11:55:51.709Z,32.36
2023-04-09T11:58:24.131Z,35.11
2023-04-09T12:00:55.883Z,38.18
2023-04-09T12:03:30.860Z,41.07
2023-04-09T12:06:02.598Z,43.99
2023-04-09T12:08:32.026Z,46.27
2023-04-09T12:11:10.557Z,51.68
2023-04-09T12:13:43.542Z,57.92
2023-04-09T12:16:13.318Z,62.65
2023-04-09T12:18:42.603Z,67.21
2023-04-09T12:21:11.647Z,68.68
2023-04-09T12:23:40.964Z,74.27
2023-04-09T12:26:09.864Z,74.08
2023-04-09T12:28:38.430Z,75.21
2023-04-09T12:31:11.147Z,76.94
2023-04-09T12:33:40.634Z,76.89
2023-04-09T12:36:09.967Z,77.75
2023-04-09T12:38:39.031Z,78.19
2023-04-09T12:41:08.056Z,80.81
2023-04-09T12:43:36.633Z,81.06
2023-04-09T12:46:06.114Z,73.30
2023-04-09T12:48:36.462Z,67.82
2023-04-09T12:51:05.294Z,64.20
2023-04-09T12:53:34.188Z,65.21
2023-04-09T12:56:03.446Z,64.65
2023-04-09T12:58:32.965Z,66.99
2023-04-09T13:01:04.388Z,57.99
2023-04-09T13:03:33.560Z,61.46
2023-04-09T13:06:04.029Z,67.15
2023-04-09T13:08:33.090Z,78.64
2023-04-09T13:11:01.934Z,75.40
2023-04-09T13:13:31.622Z,78.56
2023-04-09T13:16:00.500Z,80.98
2023-04-09T13:18:29.573Z,87.95
2023-04-09T13:20:58.546Z,93.92
2023-04-09T13:23:28.880Z,95.67
2023-04-09T13:25:57.461Z,100.00
2023-04-09T13:28:26.755Z,99.32
2023-04-09T13:30:55.628Z,100.00
2023-04-09T13:33:24.635Z,100.00
2023-04-09T13:35:53.447Z,100.00
2023-04-09T13:38:22.444Z,100.00
2023-04-09T13:40:52.447Z,100.00
2023-04-09T13:43:21.141Z,100.00
2023-04-09T13:45:49.985Z,99.86
2023-04-09T13:48:18.760Z,100.00
2023-04-09T13:50:47.291Z,100.00
2023-04-09T13:53:16.043Z,100.00
2023-04-09T13:55:44.406Z,100.00
2023-04-09T13:58:14.545Z,100.00
2023-04-09T14:00:43.401Z,100.00
2023-04-09T14:03:13.340Z,100.00
2023-04-09T14:05:42.104Z,100.00
2023-04-09T14:08:10.927Z,100.00
2023-04-09T14:10:39.138Z,100.00
2023-04-09T14:13:12.156Z,100.00
2023-04-09T14:15:45.365Z,100.00
2023-04-09T14:18:14.949Z,100.00
2023-04-09T14:21:03.328Z,100.00
2023-04-09T14:23:57.250Z,100.00
2023-04-09T14:26:55.255Z,100.00
2023-04-09T14:29:24.267Z,100.00
2023-04-09T14:31:57.170Z,99.91
2023-04-09T14:34:26.226Z,97.47
2023-04-09T14:36:54.822Z,97.37
2023-04-09T14:39:23.519Z,100.00
2023-04-09T14:41:52.235Z,100.00
2023-04-09T14:44:21.021Z,100.00
2023-04-09T14:46:49.277Z,100.00
2023-04-09T14:49:20.221Z,100.00
2023-04-09T14:51:49.028Z,100.00
2023-04-09T14:54:17.892Z,100.00
2023-04-09T14:56:46.518Z,100.00
2023-04-09T14:59:15.175Z,100.00
2023-04-09T15:01:43.451Z,100.00
2023-04-09T15:04:12.396Z,100.00
2023-04-09T15:06:42.662Z,100.00
2023-04-09T15:09:11.383Z,100.00
2023-04-09T15:11:39.947Z,100.00
2023-04-09T15:14:08.717Z,100.00
2023-04-09T15:16:38.120Z,100.00
2023-04-09T15:19:07.540Z,100.00
2023-04-09T15:21:36.260Z,100.00
2023-04-09T15:24:06.550Z,99.66
2023-04-09T15:26:35.868Z,88.18
2023-04-09T15:29:07.018Z,77.56
2023-04-09T15:31:35.821Z,67.58
2023-04-09T15:34:05.227Z,63.02
2023-04-09T15:36:34.034Z,52.22
2023-04-09T15:39:03.748Z,44.74
2023-04-09T15:41:33.969Z,39.61
2023-04-09T15:44:02.684Z,43.94
2023-04-09T15:46:30.953Z,40.18
2023-04-09T15:48:59.750Z,42.60
2023-04-09T15:51:28.395Z,45.66
2023-04-09T15:53:57.091Z,46.63
2023-04-09T15:56:25.739Z,51.13
2023-04-09T15:58:55.670Z,53.54
2023-04-09T16:01:25.474Z,51.33
2023-04-09T16:03:54.084Z,45.05
2023-04-09T16:06:23.365Z,45.39
2023-04-09T16:08:52.195Z,42.63
2023-04-09T16:11:21.017Z,40.02
2023-04-09T16:13:49.284Z,39.70
2023-04-09T16:16:19.570Z,41.82
2023-04-09T16:18:48.252Z,40.93
2023-04-09T16:21:16.816Z,38.62
2023-04-09T16:23:45.755Z,39.33
2023-04-09T16:26:14.316Z,36.96
2023-04-09T16:28:42.567Z,37.67
2023-04-09T16:31:11.213Z,36.87
2023-04-09T16:33:41.484Z,38.90
2023-04-09T16:36:10.219Z,43.27
2023-04-09T16:38:39.321Z,50.59
2023-04-09T16:41:07.929Z,60.88
2023-04-09T16:43:36.160Z,72.36
2023-04-09T16:46:06.712Z,80.28
2023-04-09T16:48:37.266Z,84.33
2023-04-09T16:51:07.390Z,90.07
2023-04-09T16:53:37.652Z,92.86
2023-04-09T16:56:08.100Z,99.32
2023-04-09T16:58:36.425Z,100.00
2023-04-09T17:01:05.199Z,100.00
2023-04-09T17:03:33.816Z,100.00
2023-04-09T17:06:02.778Z,100.00
2023-04-09T17:08:33.174Z,100.00
2023-04-09T17:11:03.179Z,100.00
2023-04-09T17:13:31.869Z,100.00
2023-04-09T17:16:00.629Z,100.00
2023-04-09T17:18:29.613Z,100.00
2023-04-09T17:20:59.879Z,100.00
2023-04-09T17:23:28.532Z,100.00
2023-04-09T17:25:58.583Z,100.00
2023-04-09T17:28:26.954Z,100.00
2023-04-09T17:30:55.618Z,100.00
2023-04-09T17:33:24.282Z,100.00
2023-04-09T17:35:53.049Z,100.00
2023-04-09T17:38:24.068Z,100.00
2023-04-09T17:40:52.302Z,100.00
2023-04-09T17:43:22.326Z,100.00
2023-04-09T17:45:51.266Z,100.00
2023-04-09T17:48:20.061Z,100.00
2023-04-09T17:50:48.773Z,100.00
2023-04-09T17:53:17.717Z,100.00
2023-04-09T17:55:49.058Z,100.00
2023-04-09T17:58:17.889Z,100.00
2023-04-09T18:00:48.187Z,100.00
2023-04-09T18:03:21.084Z,100.00
2023-04-09T18:05:50.085Z,100.00
2023-04-09T18:08:18.742Z,100.00
2023-04-09T18:11:04.770Z,100.00
2023-04-09T18:13:38.405Z,100.00
2023-04-09T18:16:12.410Z,100.00
2023-04-09T18:18:41.362Z,100.00
2023-04-09T18:21:10.058Z,100.00
2023-04-09T18:23:40.270Z,100.00
2023-04-09T18:26:09.240Z,100.00
2023-04-09T18:28:37.426Z,100.00
2023-04-09T18:31:06.599Z,100.00
2023-04-09T18:33:37.230Z,100.00
2023-04-09T18:36:06.477Z,100.00
2023-04-09T18:38:35.126Z,100.00
2023-04-09T18:41:04.019Z,100.00
2023-04-09T18:43:32.429Z,100.00
2023-04-09T18:46:06.837Z,100.00
2023-04-09T18:48:44.157Z,100.00
2023-04-09T18:51:39.736Z,100.00
2023-04-09T18:54:36.588Z,100.00
2023-04-09T18:57:19.403Z,100.00
2023-04-09T19:00:17.735Z,100.00
2023-04-09T19:03:13.943Z,100.00
2023-04-09T19:06:13.546Z,100.00
2023-04-09T19:09:11.693Z,100.00
2023-04-09T19:12:09.969Z,100.00
2023-04-09T19:15:04.976Z,100.00
2023-04-09T19:17:50.696Z,100.00
2023-04-09T19:20:26.423Z,100.00
2023-04-09T19:23:26.066Z,100.00
2023-04-09T19:26:03.468Z,100.00
2023-04-09T19:29:01.730Z,100.00
2023-04-09T19:32:00.092Z,100.00
2023-04-09T19:34:36.065Z,100.00
2023-04-09T19:37:31.262Z,100.00
2023-04-09T19:40:29.136Z,100.00
2023-04-09T19:42:58.600Z,100.00
2023-04-09T19:45:28.377Z,100.00
2023-04-09T19:47:58.129Z,100.00
2023-04-09T19:50:27.672Z,100.00
2023-04-09T19:52:56.304Z,100.00
2023-04-09T19:55:25.295Z,100.00
2023-04-09T19:57:55.371Z,100.00
2023-04-09T20:00:24.112Z,100.00
2023-04-09T20:02:53.510Z,100.00
2023-04-09T20:05:22.834Z,100.00
2023-04-09T20:08:35.932Z,100.00
2023-04-09T20:13:22.132Z,100.00
2023-04-09T20:15:51.820Z,100.00
2023-04-09T20:18:20.776Z,100.00
2023-04-09T20:20:50.782Z,100.00
2023-04-09T20:23:19.766Z,100.00
2023-04-09T20:25:48.251Z,100.00
2023-04-09T20:28:17.118Z,100.00
2023-04-09T20:30:47.815Z,100.00
2023-04-09T20:33:16.849Z,100.00
2023-04-09T20:35:45.822Z,100.00
2023-04-09T20:38:14.858Z,100.00
2023-04-09T20:40:43.414Z,100.00
2023-04-09T20:43:12.390Z,100.00
2023-04-09T20:45:41.359Z,100.00
2023-04-09T20:48:12.045Z,100.00
2023-04-09T20:50:40.955Z,100.00
2023-04-09T20:53:09.903Z,100.00
2023-04-09T20:55:38.856Z,100.00
2023-04-09T20:58:07.854Z,100.00
2023-04-09T21:00:36.936Z,100.00
2023-04-09T21:03:07.189Z,100.00
2023-04-09T21:05:37.930Z,100.00
2023-04-09T21:08:07.017Z,100.00
2023-04-09T21:10:35.540Z,100.00
2023-04-09T21:13:04.521Z,100.00
2023-04-09T21:15:33.358Z,100.00
2023-04-09T21:18:02.467Z,100.00
2023-04-09T21:20:31.486Z,100.00
2023-04-09T21:23:01.942Z,100.00
2023-04-09T21:25:30.635Z,100.00
2023-04-09T21:27:59.694Z,100.00
2023-04-09T21:30:29.766Z,100.00
2023-04-09T21:33:01.133Z,100.00
2023-04-09T21:35:30.240Z,100.00
2023-04-09T21:37:59.360Z,100.00
2023-04-09T21:40:29.300Z,100.00
2023-04-09T21:42:57.983Z,100.00
2023-04-09T21:45:26.946Z,100.00
2023-04-09T21:47:55.908Z,100.00
2023-04-09T21:50:24.889Z,100.00
2023-04-09T21:52:53.413Z,100.00
2023-04-09T21:55:22.453Z,100.00
2023-04-09T21:57:55.321Z,100.00
2023-04-09T22:00:24.499Z,100.00
2023-04-09T22:02:53.416Z,100.00
2023-04-09T22:05:23.326Z,100.00
2023-04-09T22:07:51.890Z,100.00
2023-04-09T22:10:20.807Z,100.00
2023-04-09T22:12:49.972Z,100.00
2023-04-09T22:15:21.459Z,100.00
2023-04-09T22:17:50.442Z,100.00
2023-04-09T22:20:19.327Z,100.00
2023-04-09T22:22:48.436Z,100.00
2023-04-09T22:25:17.392Z,100.00
2023-04-09T22:27:46.366Z,100.00
2023-04-09T22:30:15.199Z,100.00
2023-04-09T22:32:45.616Z,100.00
2023-04-09T22:35:18.234Z,100.00
2023-04-09T22:37:47.295Z,100.00
2023-04-09T22:40:16.916Z,100.00
2023-04-09T22:42:48.051Z,100.00
2023-04-09T22:45:17.005Z,100.00
2023-04-09T22:47:47.340Z,100.00
2023-04-09T22:50:15.925Z,100.00
2023-04-09T22:52:44.377Z,100.00
2023-04-09T22:55:13.749Z,100.00
2023-04-09T22:57:44.342Z,100.00
2023-04-09T23:00:14.155Z,100.00
2023-04-09T23:02:43.401Z,100.00
2023-04-09T23:05:13.985Z,100.00
2023-04-09T23:07:42.856Z,100.00
2023-04-09T23:10:14.377Z,100.00
2023-04-09T23:12:43.412Z,100.00
2023-04-09T23:15:12.852Z,100.00
2023-04-09T23:17:42.969Z,100.00
2023-04-09T23:20:15.098Z,100.00
2023-04-09T23:22:43.785Z,100.00
2023-04-09T23:25:13.464Z,100.00
2023-04-09T23:27:42.415Z,100.00
2023-04-09T23:30:16.765Z,100.00
2023-04-09T23:32:46.248Z,100.00
2023-04-09T23:35:16.817Z,100.00
2023-04-09T23:37:45.657Z,100.00
2023-04-09T23:40:15.729Z,100.00
2023-04-09T23:42:44.498Z,100.00
2023-04-09T23:45:13.469Z,100.00
2023-04-09T23:47:42.532Z,100.00
2023-04-09T23:50:11.868Z,100.00
2023-04-09T23:52:47.961Z,100.00
2023-04-09T23:55:18.148Z,100.00
2023-04-09T23:57:47.466Z,100.00
